^^
Lisbon, NH - Weather Station Historical Data
 
Daily Summary for November 27, 2021 Units:  English    Metric   Both
Daily Weekly Monthly Yearly
  Current: High: Low: Average:
Temperature: 26.1 °F 33.4 °F 26.1 °F 29 °F
Dew Point: 23.6 °F 33.4 °F 23.5 °F 27.5 °F
Humidity: 90% 100% 89.6% 94%
Wind Speed: 1.3mph 1.5mph 0mph 0.5mph
Wind Gust: 2mph 8mph - -
WindENE - - South
Pressure: 29.58 in 29.58 in 29.42 in -
Precipitation: 0.04 in      
 
 
Tabular Data for November 27, 2021
Time Temperature Dew Point Pressure Wind Wind Speed Wind Gust Humidity Rainfall Rate (Hourly) solar
00:04 33.2 °F 33.2 °F 29.42 in Calm     100% 0.04 in 0 W/m2
00:09 33.4 °F 33.4 °F 29.42 in Calm     100% 0.04 in 0 W/m2
00:14 33.3 °F 33.3 °F 29.42 in Calm     100% 0.04 in 0 W/m2
00:19 33.1 °F 33.1 °F 29.42 in Calm     100% 0.04 in 0 W/m2
00:24 32.9 °F 32.9 °F 29.42 in Calm     100% 0.04 in 0 W/m2
00:29 32.8 °F 32.8 °F 29.42 in Calm     100% 0.04 in 0 W/m2
00:34 32.7 °F 32.7 °F 29.42 in Calm     100% 0.04 in 0 W/m2
00:39 32.5 °F 32.5 °F 29.42 in Calm     100% 0.04 in 0 W/m2
00:44 32.4 °F 32.4 °F 29.42 in Calm     100% 0.04 in 0 W/m2
00:49 32.2 °F 32.2 °F 29.42 in Calm     100% 0.03 in 0 W/m2
00:54 32.1 °F 32.1 °F 29.42 in Calm     100% 0.03 in 0 W/m2
00:59 32 °F 32 °F 29.43 in Calm     100% 0.03 in 0 W/m2
01:04 31.8 °F 31.8 °F 29.43 in Calm     100% 0.03 in 0 W/m2
01:09 31.6 °F 31.6 °F 29.43 in Calm     100% 0.02 in 0 W/m2
01:14 31.5 °F 31.4 °F 29.44 in Calm     99.5% 0.02 in 0 W/m2
01:19 31.5 °F 31.2 °F 29.44 in Calm     99% 0.02 in 0 W/m2
01:24 31.3 °F 31 °F 29.44 in Calm   1 mph 99% 0.02 in 0 W/m2
01:29 31.2 °F 31 °F 29.45 in Calm     99% 0.01 in 0 W/m2
01:34 31 °F 30.7 °F 29.45 in NW 1.4 mph 8 mph 98.8% 0.01 in 0 W/m2
01:39 30.9 °F 30.4 °F 29.45 in WNW 0.7 mph 2 mph 98% 0.00 in 0 W/m2
01:44 30.9 °F 30.4 °F 29.46 in NW 0.3 mph 2 mph 98% 0.00 in 0 W/m2
01:49 30.7 °F 30.2 °F 29.46 in NNE 0.6 mph 2 mph 97.9% 0.00 in 0 W/m2
01:54 30.7 °F 30 °F 29.46 in North 0.9 mph 3 mph 97% 0.00 in 0 W/m2
01:59 30.6 °F 29.9 °F 29.46 in SW 0.3 mph 2 mph 97% 0.00 in 0 W/m2
02:04 30.6 °F 29.8 °F 29.46 in NNW 0.8 mph 3 mph 96.6% 0.00 in 0 W/m2
02:09 30.5 °F 29.5 °F 29.46 in Calm   1 mph 96% 0.00 in 0 W/m2
02:14 30.4 °F 29.4 °F 29.47 in South 0.5 mph 2 mph 96% 0.00 in 0 W/m2
02:19 30.4 °F 29.4 °F 29.47 in NNE 0.5 mph 2 mph 96% 0.00 in 0 W/m2
02:24 30.3 °F 29.3 °F 29.47 in NNE 0.4 mph 3 mph 96% 0.00 in 0 W/m2
02:29 30.1 °F 28.9 °F 29.48 in NNW 1 mph 3 mph 95.3% 0.00 in 0 W/m2
02:34 30 °F 28.8 °F 29.48 in North 0.6 mph 3 mph 95% 0.00 in 0 W/m2
02:39 29.8 °F 28.6 °F 29.48 in ENE 0.9 mph 6 mph 95% 0.00 in 0 W/m2
02:44 29.7 °F 28.3 °F 29.49 in NNW 1.1 mph 6 mph 94.1% 0.00 in 0 W/m2
02:49 29.5 °F 28 °F 29.49 in NW 1.5 mph 5 mph 94% 0.00 in 0 W/m2
02:54 29.5 °F 27.9 °F 29.49 in NW 1 mph 5 mph 94% 0.00 in 0 W/m2
02:59 29.4 °F 27.9 °F 29.50 in NE 1.2 mph 5 mph 94% 0.00 in 0 W/m2
03:04 29.4 °F 27.9 °F 29.50 in SE 0.9 mph 5 mph 94% 0.00 in 0 W/m2
03:09 29.3 °F 27.8 °F 29.50 in ENE 0.7 mph 3 mph 94% 0.00 in 0 W/m2
03:14 29.1 °F 27.5 °F 29.51 in NE 0.6 mph 3 mph 93.7% 0.00 in 0 W/m2
03:19 29.1 °F 27.4 °F 29.51 in NNW 0.9 mph 3 mph 93.3% 0.00 in 0 W/m2
03:24 29 °F 27.3 °F 29.51 in NE 1.2 mph 5 mph 93% 0.00 in 0 W/m2
03:29 29 °F 27.2 °F 29.51 in SW 1 mph 3 mph 93% 0.00 in 0 W/m2
03:34 28.8 °F 26.8 °F 29.51 in NW 1.3 mph 5 mph 92.3% 0.00 in 0 W/m2
03:39 28.8 °F 26.8 °F 29.51 in NNE 1.1 mph 3 mph 92.2% 0.00 in 0 W/m2
03:44 28.7 °F 27 °F 29.52 in NW 1.2 mph 4 mph 93% 0.00 in 0 W/m2
03:49 28.6 °F 26.6 °F 29.52 in North 0.9 mph 4 mph 92% 0.00 in 0 W/m2
03:54 28.5 °F 26.5 °F 29.52 in NW 0.7 mph 3 mph 92% 0.00 in 0 W/m2
03:59 28.5 °F 26.5 °F 29.52 in ENE 1.2 mph 3 mph 92% 0.00 in 0 W/m2
04:04 28.4 °F 26.4 °F 29.52 in ENE 0.7 mph 2 mph 92% 0.00 in 0 W/m2
04:09 28.4 °F 26.3 °F 29.52 in South 0.6 mph 3 mph 91.6% 0.00 in 0 W/m2
04:14 28.3 °F 26.2 °F 29.53 in WNW 1.1 mph 3 mph 91.6% 0.00 in 0 W/m2
04:19 28.2 °F 25.9 °F 29.53 in NNW 0.6 mph 5 mph 91.1% 0.00 in 0 W/m2
04:24 28.2 °F 26.2 °F 29.53 in SE 0.1 mph 5 mph 92% 0.00 in 0 W/m2
04:29 28.2 °F 26.2 °F 29.53 in SSE 0.2 mph 2 mph 92% 0.00 in 0 W/m2
04:34 28.2 °F 26.2 °F 29.53 in NW 0.7 mph 3 mph 92% 0.00 in 0 W/m2
04:39 28.1 °F 26 °F 29.53 in NNW 1.1 mph 4 mph 91.5% 0.00 in 0 W/m2
04:44 27.9 °F 25.7 °F 29.53 in North 0.5 mph 2 mph 91.3% 0.00 in 0 W/m2
04:49 27.9 °F 25.7 °F 29.53 in ENE 0.4 mph 2 mph 91.1% 0.00 in 0 W/m2
04:54 27.8 °F 25.5 °F 29.53 in NW 0.8 mph 2 mph 91% 0.00 in 0 W/m2
04:59 27.6 °F 25.3 °F 29.54 in NE 0.3 mph 2 mph 91% 0.00 in 0 W/m2
05:04 27.5 °F 25.3 °F 29.54 in NE 0.6 mph 2 mph 91% 0.00 in 0 W/m2
05:09 27.4 °F 25 °F 29.54 in NE 1.1 mph 3 mph 90.5% 0.00 in 0 W/m2
05:14 27.2 °F 24.7 °F 29.55 in NW 0.9 mph 5 mph 90% 0.00 in 0 W/m2
05:19 27.1 °F 24.6 °F 29.55 in ENE 0.7 mph 5 mph 89.8% 0.00 in 0 W/m2
05:24 27 °F 24.5 °F 29.55 in SSE 0.5 mph 2 mph 90% 0.00 in 0 W/m2
05:29 27 °F 24.6 °F 29.55 in SE 0.1 mph 2 mph 90.4% 0.00 in 0 W/m2
05:34 27 °F 24.6 °F 29.55 in ENE 0.6 mph 3 mph 90.4% 0.00 in 0 W/m2
05:39 26.9 °F 24.4 °F 29.55 in NNE 0.6 mph 3 mph 90% 0.00 in 0 W/m2
05:44 26.7 °F 24.2 °F 29.55 in NW 0.4 mph 2 mph 90% 0.01 in 0 W/m2
05:49 26.8 °F 24.5 °F 29.55 in SSW 0.4 mph 2 mph 90.9% 0.01 in 0 W/m2
05:54 26.7 °F 24.5 °F 29.55 in SSW 0.4 mph 2 mph 91.2% 0.01 in 0 W/m2
05:59 26.7 °F 24.6 °F 29.56 in SSW 0.1 mph 1 mph 91.7% 0.01 in 0 W/m2
06:04 26.7 °F 24.7 °F 29.56 in NW 0.1 mph 1 mph 92% 0.01 in 0 W/m2
06:09 26.6 °F 24.6 °F 29.56 in Calm   1 mph 92% 0.01 in 0 W/m2
06:14 26.6 °F 24.5 °F 29.56 in WNW 0.6 mph 3 mph 91.8% 0.01 in 0 W/m2
06:19 26.4 °F 24.1 °F 29.56 in WNW 0.7 mph 5 mph 91% 0.01 in 0 W/m2
06:24 26.4 °F 24.1 °F 29.56 in NE 0.4 mph 2 mph 91% 0.01 in 0 W/m2
06:29 26.4 °F 24.1 °F 29.57 in NE 0.7 mph 2 mph 91% 0.01 in 0 W/m2
06:34 26.4 °F 24.1 °F 29.57 in NW 0.1 mph 2 mph 91% 0.01 in 0 W/m2
06:39 26.4 °F 24.1 °F 29.57 in ENE 0.4 mph 2 mph 91% 0.01 in 0 W/m2
06:44 26.3 °F 24.1 °F 29.57 in NNE 0.5 mph 2 mph 91% 0.01 in 0 W/m2
06:49 26.3 °F 23.8 °F 29.57 in North 0.5 mph 2 mph 90% 0.01 in 0 W/m2
06:54 26.2 °F 23.7 °F 29.57 in NW 1 mph 3 mph 90% 0.01 in 0 W/m2
06:59 26.1 °F 23.6 °F 29.58 in North 0.3 mph 3 mph 90% 0.00 in 0 W/m2
07:04 26.1 °F 23.5 °F 29.58 in ESE 0.6 mph 3 mph 89.6% 0.00 in 0 W/m2
07:09 26.1 °F 23.5 °F 29.58 in WNW 0.2 mph 2 mph 89.7% 0.00 in 0 W/m2
07:14 26.1 °F 23.6 °F 29.58 in ENE 1.1 mph 3 mph 90% 0.00 in 0 W/m2
07:15 26.1 °F 23.6 °F 29.58 in ENE 1.3 mph 2 mph 90% 0.01 in 0 W/m2
Lisbon, New Hampshire, USA
Compliments of Weather Underground - 2.75 mb